createdAt,value
2022-08-22T00:00:32.674Z,7.20
2022-08-22T00:03:03.231Z,6.63
2022-08-22T00:03:04.652Z,10.73
2022-08-22T00:05:43.151Z,13.40
2022-08-22T00:10:56.716Z,10.57
2022-08-22T00:16:05.864Z,10.43
2022-08-22T00:21:10.641Z,14.90
2022-08-22T00:26:16.730Z,10.33
2022-08-22T00:31:25.672Z,11.40
2022-08-22T00:36:31.320Z,10.77
2022-08-22T00:41:46.389Z,10.70
2022-08-22T00:47:13.392Z,9.50
2022-08-22T00:52:29.842Z,7.70
2022-08-22T00:57:40.563Z,7.90
2022-08-22T01:03:05.935Z,10.10
2022-08-22T01:08:24.855Z,9.60
2022-08-22T01:13:40.616Z,9.13
2022-08-22T01:19:01.328Z,10.83
2022-08-22T01:25:06.877Z,11.47
2022-08-22T01:30:42.731Z,9.17
2022-08-22T01:36:13.221Z,9.80
2022-08-22T01:41:40.930Z,13.00
2022-08-22T01:46:48.622Z,13.47
2022-08-22T01:51:55.206Z,13.80
2022-08-22T01:57:01.748Z,13.17
2022-08-22T02:02:08.246Z,10.53
2022-08-22T02:07:14.207Z,11.10
2022-08-22T02:12:31.298Z,17.70
2022-08-22T02:17:33.260Z,10.03
2022-08-22T02:22:44.417Z,12.20
2022-08-22T02:27:52.219Z,12.57
2022-08-22T02:32:59.384Z,12.93
2022-08-22T02:38:09.036Z,14.27
2022-08-22T02:43:19.657Z,27.70
2022-08-22T02:48:28.115Z,13.43
2022-08-22T02:53:34.712Z,12.53
2022-08-22T02:58:43.866Z,9.20
2022-08-22T03:03:44.503Z,13.03
2022-08-22T03:09:04.490Z,15.10
2022-08-22T03:14:10.408Z,11.27
2022-08-22T03:19:18.924Z,13.30
2022-08-22T03:24:25.860Z,8.53
2022-08-22T03:29:28.252Z,12.00
2022-08-22T03:34:27.494Z,14.00
2022-08-22T03:39:49.792Z,12.27
2022-08-22T03:45:43.118Z,12.70
2022-08-22T03:51:02.171Z,16.73
2022-08-22T03:56:57.426Z,16.43
2022-08-22T04:02:42.061Z,12.27
2022-08-22T04:07:57.010Z,16.07
2022-08-22T04:13:18.250Z,13.63
2022-08-22T04:18:29.364Z,11.90
2022-08-22T04:23:57.929Z,18.30
2022-08-22T04:29:04.827Z,14.60
2022-08-22T04:34:07.407Z,12.07
2022-08-22T04:39:13.932Z,9.60
2022-08-22T04:44:20.299Z,13.33
2022-08-22T04:49:26.031Z,12.30
2022-08-22T04:54:38.685Z,12.43
2022-08-22T04:59:38.621Z,14.90
2022-08-22T05:04:41.611Z,19.03
2022-08-22T05:09:45.940Z,12.90
2022-08-22T05:14:50.102Z,15.50
2022-08-22T05:19:56.556Z,11.23
2022-08-22T05:24:58.657Z,13.03
2022-08-22T05:30:03.312Z,13.47
2022-08-22T05:35:04.373Z,16.73
2022-08-22T05:40:03.117Z,14.77
2022-08-22T05:45:06.841Z,15.03
2022-08-22T05:50:17.251Z,14.10
2022-08-22T05:55:26.282Z,25.03
2022-08-22T06:00:28.239Z,14.93
2022-08-22T06:05:28.741Z,15.63
2022-08-22T06:10:32.203Z,19.63
2022-08-22T06:15:41.860Z,14.00
2022-08-22T06:20:49.042Z,13.30
2022-08-22T06:25:50.441Z,13.63
2022-08-22T06:30:52.075Z,14.60
2022-08-22T06:36:11.161Z,13.43
2022-08-22T06:41:10.753Z,16.23
2022-08-22T06:46:11.838Z,20.47
2022-08-22T06:51:12.421Z,17.40
2022-08-22T06:56:11.420Z,14.03
2022-08-22T07:01:14.056Z,20.57
2022-08-22T07:06:19.235Z,9.10
2022-08-22T07:11:24.676Z,16.30
2022-08-22T07:16:34.796Z,13.60
2022-08-22T07:21:43.961Z,13.47
2022-08-22T07:26:55.526Z,15.57
2022-08-22T07:32:06.592Z,11.10
2022-08-22T07:37:09.369Z,13.60
2022-08-22T07:42:14.257Z,16.17
2022-08-22T07:47:26.353Z,12.50
2022-08-22T07:52:26.028Z,17.23
2022-08-22T07:57:29.559Z,18.83
2022-08-22T08:02:29.934Z,10.60
2022-08-22T08:07:32.149Z,13.50
2022-08-22T08:12:34.373Z,13.07
2022-08-22T08:17:36.386Z,10.63
2022-08-22T08:22:35.444Z,10.73
2022-08-22T08:27:56.602Z,11.43
2022-08-22T08:33:25.033Z,13.30
2022-08-22T08:38:21.622Z,12.67
2022-08-22T08:43:29.986Z,14.50
2022-08-22T08:48:51.686Z,10.43
2022-08-22T08:54:09.349Z,16.70
2022-08-22T08:59:21.953Z,17.10
2022-08-22T09:04:46.852Z,13.77
2022-08-22T09:10:04.719Z,12.23
2022-08-22T09:15:24.438Z,15.83
2022-08-22T09:21:02.415Z,18.57
2022-08-22T09:26:04.968Z,19.40
2022-08-22T09:31:51.510Z,22.60
2022-08-22T09:37:14.165Z,19.90
2022-08-22T09:42:19.705Z,17.40
2022-08-22T09:47:25.284Z,17.47
2022-08-22T09:52:51.803Z,19.70
2022-08-22T09:57:56.155Z,23.63
2022-08-22T10:03:03.953Z,23.10
2022-08-22T10:08:13.074Z,21.80
2022-08-22T10:13:22.887Z,20.53
2022-08-22T10:18:33.834Z,17.83
2022-08-22T10:23:38.499Z,20.80
2022-08-22T10:28:50.682Z,21.87
2022-08-22T10:34:00.651Z,21.53
2022-08-22T10:39:09.345Z,21.90
2022-08-22T10:44:18.444Z,23.10
2022-08-22T10:49:28.164Z,24.70
2022-08-22T10:54:46.053Z,24.37
2022-08-22T10:59:48.074Z,25.17
2022-08-22T11:05:13.913Z,27.60
2022-08-22T11:10:23.786Z,28.53
2022-08-22T11:15:42.350Z,28.77
2022-08-22T11:20:51.732Z,31.60
2022-08-22T11:26:05.040Z,32.30
2022-08-22T11:31:10.080Z,29.67
2022-08-22T11:36:29.196Z,28.20
2022-08-22T11:41:38.207Z,31.10
2022-08-22T11:46:40.475Z,29.27
2022-08-22T11:51:58.207Z,32.73
2022-08-22T11:57:09.478Z,30.77
2022-08-22T12:02:16.110Z,34.33
2022-08-22T12:07:22.303Z,33.77
2022-08-22T12:12:36.230Z,32.87
2022-08-22T12:18:25.463Z,33.13
2022-08-22T12:23:49.185Z,31.50
2022-08-22T12:29:04.598Z,31.77
2022-08-22T12:34:22.246Z,32.53
2022-08-22T12:39:55.831Z,30.37
2022-08-22T12:45:22.427Z,30.50
2022-08-22T12:50:31.537Z,32.77
2022-08-22T12:56:03.583Z,29.73
2022-08-22T13:01:07.346Z,28.67
2022-08-22T13:06:53.254Z,38.30
2022-08-22T13:11:55.349Z,34.97
2022-08-22T13:17:01.529Z,35.80
2022-08-22T13:22:26.184Z,33.13
2022-08-22T13:27:31.287Z,32.20
2022-08-22T13:32:35.067Z,31.63
2022-08-22T13:37:38.857Z,29.63
2022-08-22T13:42:45.498Z,30.70
2022-08-22T13:47:56.401Z,31.97
2022-08-22T13:53:03.547Z,33.30
2022-08-22T13:58:07.619Z,30.37
2022-08-22T14:03:17.119Z,56.63
2022-08-22T14:08:20.624Z,54.83
2022-08-22T14:13:39.271Z,27.60
2022-08-22T14:18:46.159Z,26.67
2022-08-22T14:23:45.991Z,27.40
2022-08-22T14:28:45.028Z,27.07
2022-08-22T14:33:49.854Z,25.27
2022-08-22T14:38:56.381Z,23.27
2022-08-22T14:43:58.649Z,23.17
2022-08-22T14:49:31.674Z,23.47
2022-08-22T14:54:31.985Z,23.80
2022-08-22T14:59:40.562Z,23.30
2022-08-22T15:04:43.432Z,22.97
2022-08-22T15:09:50.109Z,22.47
2022-08-22T15:14:52.551Z,23.93
2022-08-22T15:19:52.304Z,21.47
2022-08-22T15:24:58.230Z,23.77
2022-08-22T15:29:59.708Z,24.83
2022-08-22T15:35:09.415Z,20.97
2022-08-22T15:40:12.641Z,21.47
2022-08-22T15:45:21.564Z,21.50
2022-08-22T15:50:33.978Z,20.67
2022-08-22T15:55:34.495Z,18.90
2022-08-22T16:00:43.246Z,22.33
2022-08-22T16:05:51.980Z,21.43
2022-08-22T16:11:13.871Z,21.70
2022-08-22T16:16:35.251Z,17.70
2022-08-22T16:22:19.426Z,17.97
2022-08-22T16:27:25.548Z,19.03
2022-08-22T16:32:28.774Z,17.07
2022-08-22T16:37:50.353Z,19.27
2022-08-22T16:42:53.966Z,17.60
2022-08-22T16:47:58.487Z,18.60
2022-08-22T16:53:01.583Z,15.20
2022-08-22T16:58:09.080Z,16.70
2022-08-22T17:03:18.137Z,17.23
2022-08-22T17:08:38.821Z,15.90
2022-08-22T17:13:52.627Z,23.73
2022-08-22T17:19:17.500Z,17.60
2022-08-22T17:24:31.938Z,17.17
2022-08-22T17:29:48.990Z,15.20
2022-08-22T17:34:57.096Z,14.87
2022-08-22T17:40:14.338Z,18.53
2022-08-22T17:45:25.824Z,14.43
2022-08-22T17:50:33.422Z,18.10
2022-08-22T17:55:40.288Z,13.47
2022-08-22T18:00:48.738Z,14.13
2022-08-22T18:05:52.280Z,15.90
2022-08-22T18:10:54.778Z,12.93
2022-08-22T18:15:58.232Z,13.20
2022-08-22T18:21:01.878Z,14.00
2022-08-22T18:26:09.092Z,12.97
2022-08-22T18:31:18.266Z,12.30
2022-08-22T18:36:26.580Z,12.93
2022-08-22T18:41:33.655Z,17.33
2022-08-22T18:46:47.041Z,12.50
2022-08-22T18:51:45.483Z,13.47
2022-08-22T18:57:06.940Z,13.67
2022-08-22T19:02:42.572Z,13.90
2022-08-22T19:08:09.521Z,13.70
2022-08-22T19:13:32.729Z,18.87
2022-08-22T19:18:42.218Z,11.77
2022-08-22T19:23:49.231Z,14.63
2022-08-22T19:28:48.085Z,10.47
2022-08-22T19:33:50.168Z,11.60
2022-08-22T19:38:59.917Z,9.53
2022-08-22T19:43:58.828Z,11.40
2022-08-22T19:48:59.072Z,11.93
2022-08-22T19:54:18.290Z,20.33
2022-08-22T19:59:24.443Z,11.50
2022-08-22T20:04:52.810Z,9.90
2022-08-22T20:10:02.811Z,11.17
2022-08-22T20:15:17.451Z,9.73
2022-08-22T20:20:58.297Z,12.93
2022-08-22T20:25:57.528Z,9.90
2022-08-22T20:31:01.461Z,9.00
2022-08-22T20:36:05.282Z,9.57
2022-08-22T20:41:15.223Z,9.87
2022-08-22T20:46:38.472Z,8.20
2022-08-22T20:51:51.839Z,10.50
2022-08-22T20:56:53.980Z,8.80
2022-08-22T21:01:58.706Z,11.47
2022-08-22T21:07:02.689Z,8.73
2022-08-22T21:12:03.166Z,8.40
2022-08-22T21:17:20.399Z,9.30
2022-08-22T21:22:30.301Z,14.57
2022-08-22T21:27:31.607Z,10.90
2022-08-22T21:32:35.086Z,7.17
2022-08-22T21:37:39.880Z,7.60
2022-08-22T21:42:40.418Z,16.50
2022-08-22T21:47:41.116Z,10.47
2022-08-22T21:52:44.081Z,11.80
2022-08-22T21:57:42.301Z,10.63
2022-08-22T22:02:41.902Z,7.90
2022-08-22T22:07:47.644Z,9.60
2022-08-22T22:12:48.327Z,7.67
2022-08-22T22:17:46.622Z,9.90
2022-08-22T22:22:47.092Z,7.00
2022-08-22T22:27:46.789Z,8.07
2022-08-22T22:32:46.468Z,8.80
2022-08-22T22:37:47.361Z,9.13
2022-08-22T22:42:45.557Z,9.83
2022-08-22T22:47:43.747Z,11.43
2022-08-22T22:52:41.942Z,7.80
2022-08-22T22:57:42.815Z,8.37
2022-08-22T23:02:41.658Z,9.40
2022-08-22T23:07:40.118Z,7.63
2022-08-22T23:12:39.279Z,8.83
2022-08-22T23:17:38.835Z,8.40
2022-08-22T23:22:37.150Z,7.73
2022-08-22T23:27:35.343Z,7.40
2022-08-22T23:32:34.503Z,11.70
2022-08-22T23:37:34.113Z,6.90
2022-08-22T23:42:32.362Z,7.43
2022-08-22T23:47:30.620Z,8.83
2022-08-22T23:52:28.801Z,7.53
2022-08-22T23:57:29.454Z,6.80
